Time;durP1;ratioP1;P1;durP2;ratioP2;P2;SDS_P1;SDS_P2;PMS_P1;PMS_P2;Temp;Humidity;BMP_temperature;BMP_pressure;BME280_temperature;BME280_humidity;BME280_pressure;Samples;Min_cycle;Max_cycle;Signal;HPM_P1;HPM_P2
2023/03/04 00:00:08;;;;;;;7.22;4.50;;;;;;;;;;5040593;28;20029;-47
2023/03/04 00:02:34;;;;;;;7.15;5.10;;;;;;;;;;5052269;28;20029;-51
2023/03/04 00:05:02;;;;;;;7.00;4.57;;;;;;;;;;5051073;28;20387;-47
2023/03/04 00:07:28;;;;;;;6.90;5.10;;;;;;;;;;5048881;28;20042;-51
2023/03/04 00:09:54;;;;;;;6.22;4.38;;;;;;;;;;5033611;28;20118;-49
2023/03/04 00:12:20;;;;;;;7.20;5.07;;;;;;;;;;5040608;28;20017;-51
2023/03/04 00:14:46;;;;;;;7.03;4.80;;;;;;;;;;5049651;28;20108;-46
2023/03/04 00:17:12;;;;;;;6.43;4.47;;;;;;;;;;5034534;28;20037;-47
2023/03/04 00:19:38;;;;;;;5.82;4.15;;;;;;;;;;5032620;28;20083;-50
2023/03/04 00:22:04;;;;;;;6.68;4.13;;;;;;;;;;5042326;28;20067;-49
2023/03/04 00:24:30;;;;;;;6.18;4.43;;;;;;;;;;5051502;28;20104;-47
2023/03/04 00:26:56;;;;;;;8.18;4.43;;;;;;;;;;5044738;28;20038;-51
2023/03/04 00:29:22;;;;;;;6.50;4.95;;;;;;;;;;5055407;28;20021;-47
2023/03/04 00:31:48;;;;;;;6.45;4.25;;;;;;;;;;5033876;28;20051;-46
2023/03/04 00:34:14;;;;;;;7.30;5.13;;;;;;;;;;5048057;28;20035;-46
2023/03/04 00:36:43;;;;;;;6.40;4.45;;;;;;;;;;5032180;28;20037;-48
2023/03/04 00:39:09;;;;;;;6.32;4.32;;;;;;;;;;5031316;28;20025;-49
2023/03/04 00:41:35;;;;;;;6.82;4.80;;;;;;;;;;5033605;28;20087;-48
2023/03/04 00:44:01;;;;;;;7.00;4.25;;;;;;;;;;5032733;28;20068;-47
2023/03/04 00:46:27;;;;;;;5.53;4.03;;;;;;;;;;5030766;28;20125;-46
2023/03/04 00:48:53;;;;;;;5.82;4.28;;;;;;;;;;5044669;28;20029;-50
2023/03/04 00:51:19;;;;;;;7.30;4.40;;;;;;;;;;5042449;28;20036;-46
2023/03/04 00:53:46;;;;;;;6.93;5.00;;;;;;;;;;5032532;28;20029;-49
2023/03/04 00:56:12;;;;;;;6.05;4.00;;;;;;;;;;5039101;28;20021;-48
2023/03/04 00:58:39;;;;;;;6.55;4.57;;;;;;;;;;5040162;28;20075;-46
2023/03/04 01:01:05;;;;;;;5.60;3.58;;;;;;;;;;5032047;28;20057;-47
2023/03/04 01:03:31;;;;;;;6.97;4.45;;;;;;;;;;5032090;28;20029;-46
2023/03/04 01:05:58;;;;;;;5.47;3.83;;;;;;;;;;5031818;28;20083;-46
2023/03/04 01:08:24;;;;;;;5.97;4.47;;;;;;;;;;5046244;28;20382;-46
2023/03/04 01:10:50;;;;;;;6.80;4.75;;;;;;;;;;5045686;28;20036;-46
2023/03/04 01:13:16;;;;;;;6.00;4.20;;;;;;;;;;5047919;28;20040;-48
2023/03/04 01:15:43;;;;;;;4.82;3.90;;;;;;;;;;5044825;28;20022;-46
2023/03/04 01:18:09;;;;;;;5.97;4.20;;;;;;;;;;5045516;28;20025;-47
2023/03/04 01:20:34;;;;;;;6.75;4.25;;;;;;;;;;5046606;28;20028;-46
2023/03/04 01:23:00;;;;;;;5.90;4.50;;;;;;;;;;5044100;28;20490;-46
2023/03/04 01:25:26;;;;;;;8.40;4.72;;;;;;;;;;5044394;28;20039;-47
2023/03/04 01:27:52;;;;;;;6.20;5.03;;;;;;;;;;5047853;28;20036;-50
2023/03/04 01:30:18;;;;;;;6.57;4.50;;;;;;;;;;5048121;28;20027;-48
2023/03/04 01:32:44;;;;;;;6.65;4.53;;;;;;;;;;5047748;28;20079;-46
2023/03/04 01:35:10;;;;;;;5.53;3.88;;;;;;;;;;5047915;28;20025;-46
2023/03/04 01:37:36;;;;;;;6.45;4.50;;;;;;;;;;5044758;28;20108;-47
2023/03/04 01:40:04;;;;;;;6.20;3.90;;;;;;;;;;5036489;28;20379;-46
2023/03/04 01:42:31;;;;;;;5.78;3.97;;;;;;;;;;5034496;28;20419;-48
2023/03/04 01:44:57;;;;;;;6.78;4.20;;;;;;;;;;5035542;28;20083;-48
2023/03/04 01:47:23;;;;;;;6.43;4.18;;;;;;;;;;5041029;28;20103;-46
2023/03/04 01:49:56;;;;;;;5.03;3.55;;;;;;;;;;5040890;28;20025;-49
2023/03/04 01:52:23;;;;;;;6.03;4.25;;;;;;;;;;5049515;28;20100;-46
2023/03/04 01:54:49;;;;;;;6.03;4.18;;;;;;;;;;5041527;28;20079;-47
2023/03/04 01:57:19;;;;;;;6.50;3.95;;;;;;;;;;5036711;28;20030;-46
2023/03/04 01:59:46;;;;;;;6.03;4.15;;;;;;;;;;5030091;28;20053;-46
2023/03/04 02:02:12;;;;;;;5.93;3.75;;;;;;;;;;5029844;28;20092;-48
2023/03/04 02:04:39;;;;;;;6.75;4.40;;;;;;;;;;5030905;28;20096;-46
2023/03/04 02:07:05;;;;;;;6.10;4.35;;;;;;;;;;5031681;28;20034;-48
2023/03/04 02:09:32;;;;;;;7.25;3.53;;;;;;;;;;5048957;28;20100;-46
2023/03/04 02:11:59;;;;;;;5.53;3.85;;;;;;;;;;5042370;28;20100;-47
2023/03/04 02:14:25;;;;;;;6.55;4.25;;;;;;;;;;5037518;28;20087;-48
2023/03/04 02:16:51;;;;;;;5.95;4.00;;;;;;;;;;5042356;28;20104;-46
2023/03/04 02:19:20;;;;;;;5.07;3.53;;;;;;;;;;5048090;28;20036;-46
2023/03/04 02:21:46;;;;;;;6.05;4.07;;;;;;;;;;5041231;28;20025;-46
2023/03/04 02:24:19;;;;;;;6.35;4.38;;;;;;;;;;5031110;28;20445;-47
2023/03/04 02:26:45;;;;;;;5.78;4.45;;;;;;;;;;5031590;28;20044;-46
2023/03/04 02:29:12;;;;;;;4.80;3.55;;;;;;;;;;5040052;28;20025;-46
2023/03/04 02:31:39;;;;;;;5.28;4.03;;;;;;;;;;5036282;28;20028;-47
2023/03/04 02:34:08;;;;;;;5.13;3.55;;;;;;;;;;5034592;28;20026;-45
2023/03/04 02:36:34;;;;;;;4.85;3.75;;;;;;;;;;5043235;28;20083;-46
2023/03/04 02:39:03;;;;;;;5.40;3.50;;;;;;;;;;5048545;28;20021;-45
2023/03/04 02:41:29;;;;;;;4.97;3.72;;;;;;;;;;5031587;28;20391;-47
2023/03/04 02:43:55;;;;;;;4.65;4.13;;;;;;;;;;5039256;28;20032;-46
2023/03/04 02:46:22;;;;;;;5.45;3.92;;;;;;;;;;5029686;28;20113;-46
2023/03/04 02:48:49;;;;;;;5.45;3.78;;;;;;;;;;5031362;28;20041;-47
2023/03/04 02:51:15;;;;;;;5.90;4.10;;;;;;;;;;5047734;28;20033;-47
2023/03/04 02:53:41;;;;;;;7.32;4.68;;;;;;;;;;5050455;28;20059;-49
2023/03/04 02:56:07;;;;;;;5.40;3.78;;;;;;;;;;5048794;28;20021;-46
2023/03/04 02:58:33;;;;;;;4.90;3.40;;;;;;;;;;5031624;28;20108;-47
2023/03/04 03:00:59;;;;;;;4.97;3.58;;;;;;;;;;5032596;28;20112;-47
2023/03/04 03:03:25;;;;;;;5.68;3.70;;;;;;;;;;5032999;28;20464;-47
2023/03/04 03:05:53;;;;;;;5.18;4.07;;;;;;;;;;5051005;28;20087;-47
2023/03/04 03:08:19;;;;;;;4.60;3.45;;;;;;;;;;5046522;28;20113;-46
2023/03/04 03:10:45;;;;;;;6.45;4.18;;;;;;;;;;5034046;28;20108;-46
2023/03/04 03:13:11;;;;;;;5.43;3.47;;;;;;;;;;5034800;28;20033;-46
2023/03/04 03:15:41;;;;;;;5.38;3.78;;;;;;;;;;5033939;28;20030;-46
2023/03/04 03:18:07;;;;;;;5.25;3.70;;;;;;;;;;5038000;28;20116;-46
2023/03/04 03:20:33;;;;;;;5.38;3.67;;;;;;;;;;5053238;28;20024;-46
2023/03/04 03:22:59;;;;;;;7.18;4.22;;;;;;;;;;5047507;28;20032;-46
2023/03/04 03:25:25;;;;;;;4.95;3.58;;;;;;;;;;5052215;28;20036;-46
2023/03/04 03:27:50;;;;;;;4.82;3.70;;;;;;;;;;5052273;28;20139;-47
2023/03/04 03:30:17;;;;;;;5.55;3.97;;;;;;;;;;5050315;28;20048;-47
2023/03/04 03:32:43;;;;;;;5.60;4.13;;;;;;;;;;5038120;28;20021;-46
2023/03/04 03:35:09;;;;;;;5.60;3.53;;;;;;;;;;5052009;28;20024;-46
2023/03/04 03:37:35;;;;;;;5.85;3.70;;;;;;;;;;5051973;28;20047;-47
2023/03/04 03:40:01;;;;;;;4.65;3.60;;;;;;;;;;5054888;28;20025;-47
2023/03/04 03:42:27;;;;;;;5.93;4.63;;;;;;;;;;5052890;28;20036;-47
2023/03/04 03:44:54;;;;;;;5.38;3.50;;;;;;;;;;5052413;28;20032;-46
2023/03/04 03:47:20;;;;;;;4.55;3.55;;;;;;;;;;5056010;28;20048;-46
2023/03/04 03:49:46;;;;;;;5.07;3.92;;;;;;;;;;5053160;28;20027;-47
2023/03/04 03:52:12;;;;;;;6.13;4.28;;;;;;;;;;5034777;28;20479;-46
2023/03/04 03:54:38;;;;;;;4.72;3.35;;;;;;;;;;5066753;28;20032;-46
2023/03/04 03:57:04;;;;;;;5.10;3.50;;;;;;;;;;5056672;28;20103;-45
2023/03/04 03:59:30;;;;;;;5.90;3.40;;;;;;;;;;5053048;28;20025;-47
2023/03/04 04:01:56;;;;;;;5.60;3.80;;;;;;;;;;5062368;28;20033;-46
2023/03/04 04:04:22;;;;;;;4.95;3.83;;;;;;;;;;5071606;28;20090;-46
2023/03/04 04:06:48;;;;;;;4.97;3.53;;;;;;;;;;5065335;28;20075;-46
2023/03/04 04:09:14;;;;;;;5.78;3.70;;;;;;;;;;5052874;28;20056;-46
2023/03/04 04:11:40;;;;;;;5.07;3.65;;;;;;;;;;5053246;28;20032;-46
2023/03/04 04:14:06;;;;;;;5.18;3.25;;;;;;;;;;5066648;28;20017;-46
2023/03/04 04:16:32;;;;;;;5.30;3.40;;;;;;;;;;5061775;28;20100;-46
2023/03/04 04:18:58;;;;;;;5.28;4.00;;;;;;;;;;5072560;28;20386;-47
2023/03/04 04:21:24;;;;;;;3.90;3.10;;;;;;;;;;5054133;28;20025;-46
2023/03/04 04:23:50;;;;;;;5.20;3.72;;;;;;;;;;5053103;28;20468;-47
2023/03/04 04:26:16;;;;;;;4.80;3.78;;;;;;;;;;5051993;28;20029;-46
2023/03/04 04:28:42;;;;;;;5.15;3.60;;;;;;;;;;5062421;28;20036;-46
2023/03/04 04:31:08;;;;;;;4.35;3.15;;;;;;;;;;5065095;28;20029;-47
2023/03/04 04:33:35;;;;;;;4.78;3.45;;;;;;;;;;5067014;28;20395;-47
2023/03/04 04:36:01;;;;;;;4.70;3.13;;;;;;;;;;5052262;28;20025;-46
2023/03/04 04:38:27;;;;;;;3.78;3.17;;;;;;;;;;5062211;28;20163;-46
2023/03/04 04:40:53;;;;;;;4.35;3.22;;;;;;;;;;5071695;28;20025;-46
2023/03/04 04:43:19;;;;;;;4.43;3.35;;;;;;;;;;5071133;28;20046;-46
2023/03/04 04:45:45;;;;;;;4.80;3.33;;;;;;;;;;5065988;28;20020;-46
2023/03/04 04:48:11;;;;;;;5.90;3.92;;;;;;;;;;5060815;28;20380;-46
2023/03/04 04:50:37;;;;;;;4.68;3.33;;;;;;;;;;5071532;28;20024;-46
2023/03/04 04:53:03;;;;;;;4.93;3.20;;;;;;;;;;5071832;28;20017;-44
2023/03/04 04:55:29;;;;;;;4.97;3.50;;;;;;;;;;5070468;28;20055;-47
2023/03/04 04:57:55;;;;;;;5.28;3.63;;;;;;;;;;5071894;28;20467;-46
2023/03/04 05:00:21;;;;;;;4.15;3.13;;;;;;;;;;5061818;28;20052;-46
2023/03/04 05:02:47;;;;;;;6.47;3.60;;;;;;;;;;5052332;28;20037;-47
2023/03/04 05:05:13;;;;;;;5.85;3.70;;;;;;;;;;5051144;28;20035;-46
2023/03/04 05:07:39;;;;;;;5.22;3.58;;;;;;;;;;5053330;28;20033;-45
2023/03/04 05:10:05;;;;;;;5.28;3.78;;;;;;;;;;5067817;28;20025;-44
2023/03/04 05:12:31;;;;;;;3.33;2.75;;;;;;;;;;5071455;28;20028;-47
2023/03/04 05:14:57;;;;;;;4.10;3.10;;;;;;;;;;5054377;28;20029;-46
2023/03/04 05:17:23;;;;;;;4.60;3.05;;;;;;;;;;5050233;28;20028;-46
2023/03/04 05:19:49;;;;;;;4.93;3.33;;;;;;;;;;5068720;28;20024;-46
2023/03/04 05:22:15;;;;;;;4.53;2.97;;;;;;;;;;5069020;28;20417;-46
2023/03/04 05:24:40;;;;;;;5.65;3.47;;;;;;;;;;5070824;28;20020;-46
2023/03/04 05:27:06;;;;;;;4.55;2.88;;;;;;;;;;5069603;28;20028;-46
2023/03/04 05:29:32;;;;;;;4.47;3.00;;;;;;;;;;5070707;28;20036;-47
2023/03/04 05:31:58;;;;;;;5.20;3.67;;;;;;;;;;5051963;28;20079;-47
2023/03/04 05:34:24;;;;;;;3.85;2.85;;;;;;;;;;5056445;28;20172;-45
2023/03/04 05:36:50;;;;;;;5.10;3.35;;;;;;;;;;5068631;28;20074;-48
2023/03/04 05:39:16;;;;;;;5.68;3.67;;;;;;;;;;5067934;28;20035;-47
2023/03/04 05:41:42;;;;;;;4.28;3.22;;;;;;;;;;5069732;28;20531;-48
2023/03/04 05:44:08;;;;;;;4.75;3.20;;;;;;;;;;5063956;28;20035;-48
2023/03/04 05:46:34;;;;;;;3.85;3.10;;;;;;;;;;5064869;28;20036;-48
2023/03/04 05:49:00;;;;;;;5.57;3.22;;;;;;;;;;5065940;28;20517;-48
2023/03/04 05:51:26;;;;;;;4.82;3.30;;;;;;;;;;5042830;28;20059;-46
2023/03/04 05:53:52;;;;;;;4.15;3.30;;;;;;;;;;5066282;28;20021;-48
2023/03/04 05:56:20;;;;;;;4.57;3.05;;;;;;;;;;5068903;28;20021;-47
2023/03/04 05:58:46;;;;;;;3.92;3.10;;;;;;;;;;5064233;28;20048;-46
2023/03/04 06:01:12;;;;;;;4.82;3.38;;;;;;;;;;5061413;28;20128;-50
2023/03/04 06:03:38;;;;;;;3.72;2.92;;;;;;;;;;5058474;28;20032;-48
2023/03/04 06:06:05;;;;;;;5.10;2.97;;;;;;;;;;5068657;28;20040;-45
2023/03/04 06:08:31;;;;;;;7.20;3.47;;;;;;;;;;5059135;28;20044;-46
2023/03/04 06:10:58;;;;;;;3.85;2.78;;;;;;;;;;5064993;28;20068;-47
2023/03/04 06:13:24;;;;;;;3.33;2.58;;;;;;;;;;5061486;28;20024;-47
2023/03/04 06:15:54;;;;;;;4.95;3.10;;;;;;;;;;5053650;28;20517;-47
2023/03/04 06:18:20;;;;;;;4.20;3.17;;;;;;;;;;5056554;28;20483;-49
2023/03/04 06:20:46;;;;;;;3.47;2.90;;;;;;;;;;5059921;28;20052;-49
2023/03/04 06:23:12;;;;;;;5.53;2.92;;;;;;;;;;5069227;28;20037;-52
2023/03/04 06:25:38;;;;;;;4.70;3.03;;;;;;;;;;5064671;28;20064;-46
2023/03/04 06:28:04;;;;;;;3.75;2.80;;;;;;;;;;5061543;28;20480;-45
2023/03/04 06:30:30;;;;;;;3.80;3.10;;;;;;;;;;5066582;28;20032;-50
2023/03/04 06:32:56;;;;;;;3.13;2.53;;;;;;;;;;5067816;28;20502;-50
2023/03/04 06:35:22;;;;;;;4.55;2.97;;;;;;;;;;5050383;28;20124;-47
2023/03/04 06:37:48;;;;;;;4.65;2.90;;;;;;;;;;5053824;28;20482;-50
2023/03/04 06:40:14;;;;;;;4.45;3.05;;;;;;;;;;5052599;28;20071;-49
2023/03/04 06:42:40;;;;;;;5.43;3.50;;;;;;;;;;5053695;28;20387;-48
2023/03/04 06:45:07;;;;;;;4.53;3.25;;;;;;;;;;5062084;28;20451;-47
2023/03/04 06:47:33;;;;;;;4.15;3.08;;;;;;;;;;5061589;28;20084;-49
2023/03/04 06:49:59;;;;;;;3.47;2.60;;;;;;;;;;5056332;28;20041;-47
2023/03/04 06:52:25;;;;;;;4.82;2.60;;;;;;;;;;5054460;28;20033;-51
2023/03/04 06:54:51;;;;;;;3.92;2.40;;;;;;;;;;5062234;28;20045;-52
2023/03/04 06:57:17;;;;;;;3.75;2.65;;;;;;;;;;5066209;28;20074;-49
2023/03/04 06:59:43;;;;;;;3.70;2.70;;;;;;;;;;5066666;28;20024;-47
2023/03/04 07:02:12;;;;;;;3.92;2.83;;;;;;;;;;5069076;28;20016;-48
2023/03/04 07:04:38;;;;;;;4.00;3.03;;;;;;;;;;5064978;28;20024;-48
2023/03/04 07:07:05;;;;;;;3.95;2.90;;;;;;;;;;5069611;28;20041;-47
2023/03/04 07:09:31;;;;;;;3.80;2.88;;;;;;;;;;5069750;28;20398;-47
2023/03/04 07:11:57;;;;;;;3.88;2.83;;;;;;;;;;5070260;28;20158;-48
2023/03/04 07:14:22;;;;;;;3.38;2.40;;;;;;;;;;5066123;28;20337;-46
2023/03/04 07:16:48;;;;;;;4.68;3.00;;;;;;;;;;5067309;28;20167;-46
2023/03/04 07:19:14;;;;;;;5.20;2.90;;;;;;;;;;5066178;28;20477;-51
2023/03/04 07:21:40;;;;;;;4.13;2.78;;;;;;;;;;5066674;28;20041;-47
2023/03/04 07:24:06;;;;;;;3.10;2.40;;;;;;;;;;5066671;28;20529;-45
2023/03/04 07:26:32;;;;;;;4.93;3.65;;;;;;;;;;5068739;28;20123;-47
2023/03/04 07:28:58;;;;;;;4.18;2.95;;;;;;;;;;5066830;28;20074;-46
2023/03/04 07:31:26;;;;;;;4.30;2.75;;;;;;;;;;5068947;28;20063;-46
2023/03/04 07:33:52;;;;;;;4.75;2.60;;;;;;;;;;5069501;28;20078;-48
2023/03/04 07:36:18;;;;;;;4.18;2.55;;;;;;;;;;5067138;28;20037;-48
2023/03/04 07:38:46;;;;;;;3.85;2.60;;;;;;;;;;5065519;28;20033;-47
2023/03/04 07:41:12;;;;;;;3.35;2.60;;;;;;;;;;5068868;28;20052;-48
2023/03/04 07:43:38;;;;;;;3.58;2.58;;;;;;;;;;5067115;28;20417;-51
2023/03/04 07:46:04;;;;;;;4.88;3.35;;;;;;;;;;5067025;28;20089;-47
2023/03/04 07:48:30;;;;;;;3.97;2.63;;;;;;;;;;5069180;28;20084;-46
2023/03/04 07:51:13;;;;;;;3.65;2.92;;;;;;;;;;5052867;28;20036;-46
2023/03/04 07:53:39;;;;;;;3.75;3.22;;;;;;;;;;5055796;28;20104;-50
2023/03/04 07:56:06;;;;;;;4.22;2.78;;;;;;;;;;5051203;28;20048;-49
2023/03/04 07:58:32;;;;;;;3.58;2.40;;;;;;;;;;5052212;28;20036;-46
2023/03/04 08:00:58;;;;;;;3.45;2.38;;;;;;;;;;5052604;28;20442;-47
2023/03/04 08:03:24;;;;;;;3.17;2.38;;;;;;;;;;5052073;28;20029;-50
2023/03/04 08:05:51;;;;;;;2.88;2.28;;;;;;;;;;5067401;28;20033;-50
2023/03/04 08:08:17;;;;;;;4.72;2.28;;;;;;;;;;5070652;28;20040;-47
2023/03/04 08:10:43;;;;;;;4.22;2.58;;;;;;;;;;5065590;28;20055;-48
2023/03/04 08:13:09;;;;;;;6.35;3.42;;;;;;;;;;5063570;28;20040;-46
2023/03/04 08:15:39;;;;;;;2.83;2.45;;;;;;;;;;5063140;28;20036;-47
2023/03/04 08:18:05;;;;;;;3.15;2.72;;;;;;;;;;5047732;28;20021;-48
2023/03/04 08:20:31;;;;;;;3.47;2.58;;;;;;;;;;5062874;28;20475;-46
2023/03/04 08:22:57;;;;;;;3.03;2.53;;;;;;;;;;5061313;28;20116;-47
2023/03/04 08:25:22;;;;;;;2.60;2.13;;;;;;;;;;5061885;28;20021;-48
2023/03/04 08:27:48;;;;;;;3.63;2.50;;;;;;;;;;5069626;28;20107;-50
2023/03/04 08:30:15;;;;;;;3.38;2.63;;;;;;;;;;5062919;28;20052;-47
2023/03/04 08:32:41;;;;;;;5.75;2.70;;;;;;;;;;5058430;28;21453;-45
2023/03/04 08:35:07;;;;;;;6.38;2.67;;;;;;;;;;5055647;28;20028;-46
2023/03/04 08:37:33;;;;;;;6.03;2.97;;;;;;;;;;5056524;28;20031;-46
2023/03/04 08:39:58;;;;;;;3.92;2.30;;;;;;;;;;5055194;28;20021;-46
2023/03/04 08:42:25;;;;;;;7.25;2.67;;;;;;;;;;5059341;28;20082;-45
2023/03/04 08:44:51;;;;;;;6.28;2.35;;;;;;;;;;5059278;28;20013;-47
2023/03/04 08:47:17;;;;;;;3.92;2.47;;;;;;;;;;5064170;28;20049;-48
2023/03/04 08:49:43;;;;;;;3.88;2.50;;;;;;;;;;5069041;28;20085;-47
2023/03/04 08:52:08;;;;;;;5.72;2.22;;;;;;;;;;5070114;28;20037;-47
2023/03/04 08:54:34;;;;;;;8.55;2.25;;;;;;;;;;5056623;28;20021;-47
2023/03/04 08:57:01;;;;;;;6.53;2.65;;;;;;;;;;5061898;28;20028;-46
2023/03/04 08:59:27;;;;;;;7.57;2.75;;;;;;;;;;5065140;28;20096;-46
2023/03/04 09:01:53;;;;;;;5.18;2.83;;;;;;;;;;5051926;28;20048;-46
2023/03/04 09:04:21;;;;;;;7.60;2.65;;;;;;;;;;5051454;28;20624;-46
2023/03/04 09:06:47;;;;;;;5.07;3.10;;;;;;;;;;5071094;28;20017;-47
2023/03/04 09:09:13;;;;;;;5.55;3.05;;;;;;;;;;5068789;28;20402;-46
2023/03/04 09:11:39;;;;;;;5.63;2.70;;;;;;;;;;5064243;28;20085;-46
2023/03/04 09:14:04;;;;;;;4.00;2.55;;;;;;;;;;5062586;28;20171;-48
2023/03/04 09:16:30;;;;;;;6.32;3.20;;;;;;;;;;5071157;28;20021;-47
2023/03/04 09:18:56;;;;;;;5.10;2.72;;;;;;;;;;5071123;28;20032;-46
2023/03/04 09:21:22;;;;;;;4.70;2.60;;;;;;;;;;5058188;28;20657;-45
2023/03/04 09:23:48;;;;;;;5.85;3.10;;;;;;;;;;5055913;28;20035;-45
2023/03/04 09:26:24;;;;;;;5.60;3.03;;;;;;;;;;5062417;28;20507;-45
2023/03/04 09:28:55;;;;;;;6.38;3.03;;;;;;;;;;5062846;28;20046;-46
2023/03/04 09:31:22;;;;;;;5.93;2.50;;;;;;;;;;5060416;28;20033;-45
2023/03/04 09:33:48;;;;;;;6.25;2.80;;;;;;;;;;5051599;28;20361;-44
2023/03/04 09:36:15;;;;;;;5.95;2.97;;;;;;;;;;5051619;28;20055;-46
2023/03/04 09:38:41;;;;;;;4.03;2.25;;;;;;;;;;5052884;28;20104;-51
2023/03/04 09:41:08;;;;;;;7.68;3.17;;;;;;;;;;5056394;28;20020;-47
2023/03/04 09:43:35;;;;;;;3.30;2.35;;;;;;;;;;5066430;28;20027;-47
2023/03/04 09:46:03;;;;;;;5.22;3.08;;;;;;;;;;5064646;28;20379;-47
2023/03/04 09:48:32;;;;;;;5.25;3.00;;;;;;;;;;5062391;28;20102;-49
2023/03/04 09:51:06;;;;;;;5.10;2.55;;;;;;;;;;5064840;28;20097;-47
2023/03/04 09:53:35;;;;;;;6.47;2.55;;;;;;;;;;5063040;28;20025;-44
2023/03/04 09:56:02;;;;;;;6.85;2.55;;;;;;;;;;5051022;28;20091;-50
2023/03/04 09:58:28;;;;;;;8.73;3.70;;;;;;;;;;5054351;28;20025;-46
2023/03/04 10:00:55;;;;;;;7.07;2.70;;;;;;;;;;5066019;28;20029;-47
2023/03/04 10:03:27;;;;;;;9.02;2.40;;;;;;;;;;5061763;28;20852;-46
2023/03/04 10:05:55;;;;;;;11.38;2.28;;;;;;;;;;5067592;28;20429;-47
2023/03/04 10:08:30;;;;;;;6.85;2.53;;;;;;;;;;5066712;28;20645;-46
2023/03/04 10:10:58;;;;;;;5.93;3.17;;;;;;;;;;5070715;28;20113;-46
2023/03/04 10:13:44;;;;;;;5.38;2.65;;;;;;;;;;5070395;28;20494;-47
2023/03/04 10:16:13;;;;;;;15.40;3.03;;;;;;;;;;5018450;28;20498;-48
2023/03/04 10:18:43;;;;;;;6.07;3.10;;;;;;;;;;5072275;28;20025;-46
2023/03/04 10:21:19;;;;;;;27.63;3.53;;;;;;;;;;5063452;28;20029;-48
2023/03/04 10:23:46;;;;;;;7.70;3.50;;;;;;;;;;5066422;28;20464;-47
2023/03/04 10:26:13;;;;;;;18.13;11.68;;;;;;;;;;5069033;28;20111;-49
2023/03/04 10:28:40;;;;;;;20.38;12.27;;;;;;;;;;5069488;28;20028;-47
2023/03/04 10:31:08;;;;;;;19.65;12.48;;;;;;;;;;5069394;28;20170;-46
2023/03/04 10:33:35;;;;;;;19.48;12.60;;;;;;;;;;5068559;28;20169;-47
2023/03/04 10:36:20;;;;;;;20.92;12.27;;;;;;;;;;5065287;28;20020;-44
2023/03/04 10:38:46;;;;;;;15.52;11.30;;;;;;;;;;5057111;28;20433;-46
2023/03/04 10:41:15;;;;;;;18.77;11.05;;;;;;;;;;5059012;28;20024;-45
2023/03/04 10:43:44;;;;;;;17.23;10.07;;;;;;;;;;5074014;28;20032;-46
2023/03/04 10:46:11;;;;;;;14.32;9.65;;;;;;;;;;5068878;28;20031;-49
2023/03/04 10:48:39;;;;;;;15.88;10.07;;;;;;;;;;5055918;28;20375;-44
2023/03/04 10:51:16;;;;;;;17.45;9.15;;;;;;;;;;5065866;28;20111;-44
2023/03/04 10:53:42;;;;;;;14.63;8.43;;;;;;;;;;5069099;28;20078;-46
2023/03/04 10:56:27;;;;;;;14.90;8.57;;;;;;;;;;5069769;28;20017;-46
2023/03/04 10:58:53;;;;;;;11.20;6.10;;;;;;;;;;5066060;28;20028;-48
2023/03/04 11:01:24;;;;;;;10.77;6.07;;;;;;;;;;5070341;28;20020;-49
2023/03/04 11:03:50;;;;;;;14.60;5.95;;;;;;;;;;5066198;28;20024;-47
2023/03/04 11:06:19;;;;;;;10.10;5.93;;;;;;;;;;5066258;28;20120;-45
2023/03/04 11:08:52;;;;;;;10.20;5.55;;;;;;;;;;5065390;28;20036;-46
2023/03/04 11:11:22;;;;;;;8.70;5.85;;;;;;;;;;5060553;28;20037;-47
2023/03/04 11:13:56;;;;;;;8.63;5.50;;;;;;;;;;5045090;28;20379;-48
2023/03/04 11:16:24;;;;;;;7.53;4.70;;;;;;;;;;5067485;28;20099;-46
2023/03/04 11:18:52;;;;;;;10.68;4.50;;;;;;;;;;5054444;28;21633;-48
2023/03/04 11:21:23;;;;;;;8.25;5.68;;;;;;;;;;5067029;28;20186;-47
2023/03/04 11:23:51;;;;;;;8.75;4.97;;;;;;;;;;5059620;28;20029;-48
2023/03/04 11:26:39;;;;;;;10.00;5.13;;;;;;;;;;5062283;28;20040;-48
2023/03/04 11:29:12;;;;;;;8.32;5.35;;;;;;;;;;5059979;28;20090;-46
2023/03/04 11:31:47;;;;;;;9.15;4.40;;;;;;;;;;5073328;28;20506;-47
2023/03/04 11:34:13;;;;;;;9.93;4.60;;;;;;;;;;5059733;28;20080;-47
2023/03/04 11:36:40;;;;;;;15.00;5.45;;;;;;;;;;5053193;28;20049;-48
2023/03/04 11:39:13;;;;;;;8.93;4.38;;;;;;;;;;5056359;28;20032;-45
2023/03/04 11:41:43;;;;;;;16.52;5.53;;;;;;;;;;5071724;28;20025;-47
2023/03/04 11:44:11;;;;;;;7.07;4.28;;;;;;;;;;5060018;28;20440;-47
2023/03/04 11:46:55;;;;;;;23.08;6.72;;;;;;;;;;5055810;28;20048;-45
2023/03/04 11:49:24;;;;;;;7.00;3.80;;;;;;;;;;5065985;28;20047;-45
2023/03/04 11:52:09;;;;;;;8.73;4.50;;;;;;;;;;5071641;28;20035;-45
2023/03/04 11:54:44;;;;;;;8.15;5.18;;;;;;;;;;5058060;28;20024;-44
2023/03/04 11:57:29;;;;;;;6.70;3.97;;;;;;;;;;5061368;28;20767;-45
2023/03/04 12:00:15;;;;;;;10.30;4.63;;;;;;;;;;5062098;28;20025;-44
2023/03/04 12:02:50;;;;;;;7.00;4.22;;;;;;;;;;5058519;28;20040;-45
2023/03/04 12:05:17;;;;;;;8.90;4.60;;;;;;;;;;5056210;28;20446;-43
2023/03/04 12:07:46;;;;;;;9.52;6.00;;;;;;;;;;5063517;28;20538;-48
2023/03/04 12:10:21;;;;;;;8.05;4.65;;;;;;;;;;5067770;28;20020;-48
2023/03/04 12:12:50;;;;;;;12.55;4.28;;;;;;;;;;5064548;28;20115;-47
2023/03/04 12:15:20;;;;;;;8.20;4.22;;;;;;;;;;5054869;28;20038;-47
2023/03/04 12:18:05;;;;;;;8.18;4.75;;;;;;;;;;5053435;28;20073;-47
2023/03/04 12:20:34;;;;;;;8.05;4.75;;;;;;;;;;5060726;28;20025;-46
2023/03/04 12:23:11;;;;;;;8.95;5.22;;;;;;;;;;5061555;28;20085;-48
2023/03/04 12:25:40;;;;;;;10.63;5.13;;;;;;;;;;5052073;28;20020;-48
2023/03/04 12:28:15;;;;;;;7.82;4.97;;;;;;;;;;5059047;28;20103;-45
2023/03/04 12:30:53;;;;;;;8.23;5.10;;;;;;;;;;5057007;28;20033;-52
2023/03/04 12:33:37;;;;;;;8.38;5.30;;;;;;;;;;5052166;28;20548;-48
2023/03/04 12:36:07;;;;;;;11.38;6.55;;;;;;;;;;5054253;28;20087;-44
2023/03/04 12:38:51;;;;;;;9.98;6.15;;;;;;;;;;5052001;28;20021;-48
2023/03/04 12:41:31;;;;;;;8.85;6.05;;;;;;;;;;5050114;28;20059;-49
2023/03/04 12:44:06;;;;;;;11.93;6.30;;;;;;;;;;5052131;28;20017;-49
2023/03/04 12:46:52;;;;;;;9.13;5.72;;;;;;;;;;5055845;28;20037;-47
2023/03/04 12:49:18;;;;;;;10.00;6.07;;;;;;;;;;5069522;28;20051;-49
2023/03/04 12:51:44;;;;;;;6.88;5.30;;;;;;;;;;5057885;28;20037;-50
2023/03/04 12:54:13;;;;;;;9.52;5.60;;;;;;;;;;5067859;28;20028;-49
2023/03/04 12:56:42;;;;;;;15.15;6.15;;;;;;;;;;5062547;28;20034;-48
2023/03/04 12:59:13;;;;;;;8.35;5.45;;;;;;;;;;5068373;28;20051;-48
2023/03/04 13:01:42;;;;;;;7.40;5.28;;;;;;;;;;5068380;28;20430;-50
2023/03/04 13:04:23;;;;;;;11.43;5.75;;;;;;;;;;5064417;28;20044;-47
2023/03/04 13:06:56;;;;;;;6.85;4.95;;;;;;;;;;5066827;28;20024;-47
2023/03/04 13:09:28;;;;;;;10.38;5.38;;;;;;;;;;5067479;28;20037;-48
2023/03/04 13:12:02;;;;;;;8.15;4.93;;;;;;;;;;5068238;28;20043;-47
2023/03/04 13:14:29;;;;;;;11.43;7.20;;;;;;;;;;5051345;28;20035;-49
2023/03/04 13:16:56;;;;;;;26.50;16.83;;;;;;;;;;5068169;28;20067;-48
2023/03/04 13:19:41;;;;;;;28.88;18.75;;;;;;;;;;5061654;28;20025;-48
2023/03/04 13:22:26;;;;;;;29.17;19.02;;;;;;;;;;5070435;28;20017;-50
2023/03/04 13:24:53;;;;;;;24.88;16.63;;;;;;;;;;5058748;28;20029;-48
2023/03/04 13:27:37;;;;;;;21.92;14.15;;;;;;;;;;5064325;28;20055;-47
2023/03/04 13:30:23;;;;;;;19.77;12.20;;;;;;;;;;5070088;28;20037;-45
2023/03/04 13:32:49;;;;;;;19.40;11.07;;;;;;;;;;5070465;28;20107;-47
2023/03/04 13:35:34;;;;;;;17.25;10.68;;;;;;;;;;5068315;28;20481;-50
2023/03/04 13:38:00;;;;;;;14.95;10.70;;;;;;;;;;5047374;28;20052;-48
2023/03/04 13:40:36;;;;;;;16.65;10.63;;;;;;;;;;5059481;28;20072;-47
2023/03/04 13:43:23;;;;;;;13.88;9.50;;;;;;;;;;5051836;28;20033;-48
2023/03/04 13:45:49;;;;;;;17.40;10.20;;;;;;;;;;5059605;28;20029;-47
2023/03/04 13:48:42;;;;;;;14.95;9.55;;;;;;;;;;5055297;28;20136;-49
2023/03/04 13:51:14;;;;;;;14.27;9.15;;;;;;;;;;5046334;28;20428;-47
2023/03/04 13:53:53;;;;;;;13.05;8.70;;;;;;;;;;5060511;28;20056;-48
2023/03/04 13:56:22;;;;;;;26.60;7.53;;;;;;;;;;5062760;28;20021;-49
2023/03/04 13:58:50;;;;;;;15.20;7.93;;;;;;;;;;5070264;28;20043;-47
2023/03/04 14:01:22;;;;;;;11.45;6.53;;;;;;;;;;5069776;28;20025;-48
2023/03/04 14:03:47;;;;;;;13.90;7.53;;;;;;;;;;5061498;28;20387;-50
2023/03/04 14:06:23;;;;;;;9.07;6.22;;;;;;;;;;5054838;28;20025;-46
2023/03/04 14:08:48;;;;;;;;;;;;;;;;;;5057624;28;20044;-44
2023/03/04 14:11:14;;;;;;;;;;;;;;;;;;5057446;28;19912;-42
2023/03/04 14:13:40;;;;;;;;;;;;;;;;;;5052010;28;19917;-43
2023/03/04 14:16:06;;;;;;;;;;;;;;;;;;5050659;28;19916;-48
2023/03/04 14:18:32;;;;;;;;;;;;;;;;;;5051056;28;20287;-44
2023/03/04 14:20:58;;;;;;;;;;;;;;;;;;5055354;28;20034;-45
2023/03/04 14:23:24;;;;;;;;;;;;;;;;;;5050980;28;19915;-44
2023/03/04 14:25:50;;;;;;;;;;;;;;;;;;5058786;28;19915;-46
2023/03/04 14:28:16;;;;;;;;;;;;;;;;;;5069764;28;20306;-47
2023/03/04 14:30:41;;;;;;;;;;;;;;;;;;5061887;28;19990;-44
2023/03/04 14:33:07;;;;;;;;;;;;;;;;;;5058395;28;19915;-44
2023/03/04 14:35:33;;;;;;;;;;;;;;;;;;5061596;28;19935;-48
2023/03/04 14:37:59;;;;;;;;;;;;;;;;;;5071727;28;19961;-49
2023/03/04 14:40:25;;;;;;;;;;;;;;;;;;5068899;28;20182;-44
2023/03/04 14:42:51;;;;;;;;;;;;;;;;;;5068924;28;19908;-46
2023/03/04 14:45:17;;;;;;;;;;;;;;;;;;5066663;28;20460;-48
2023/03/04 14:47:44;;;;;;;;;;;;;;;;;;5069265;28;19967;-46
2023/03/04 14:50:10;;;;;;;;;;;;;;;;;;5068739;28;20008;-45